Time;durP1;ratioP1;P1;durP2;ratioP2;P2;SDS_P1;SDS_P2;PMS_P1;PMS_P2;Temp;Humidity;BMP_temperature;BMP_pressure;BME280_temperature;BME280_humidity;BME280_pressure;Samples;Min_cycle;Max_cycle;Signal;HPM_P1;HPM_P2
2023/01/04 00:01:42;;;;;;;8.18;5.35;;;;;;;5.50;67.57;100802.30;1721073;83;20976;-74
2023/01/04 00:04:09;;;;;;;7.55;5.53;;;;;;;5.51;67.46;100812.30;1735611;82;21072;-74
2023/01/04 00:06:35;;;;;;;9.93;5.50;;;;;;;5.49;67.36;100808.89;1709034;83;22342;-75
2023/01/04 00:09:02;;;;;;;8.73;5.80;;;;;;;5.43;67.44;100812.23;1676151;85;21016;-74
2023/01/04 00:11:29;;;;;;;8.35;5.12;;;;;;;5.42;67.47;100815.78;1676128;85;21031;-75
2023/01/04 00:13:58;;;;;;;6.83;5.20;;;;;;;5.40;67.45;100814.14;1677191;84;21051;-75
2023/01/04 00:16:26;;;;;;;7.08;5.28;;;;;;;5.39;67.44;100820.30;1676413;85;21020;-74
2023/01/04 00:18:53;;;;;;;7.08;5.00;;;;;;;5.37;67.32;100822.16;1676537;85;22558;-75
2023/01/04 00:21:22;;;;;;;7.03;4.75;;;;;;;5.36;67.26;100825.70;1701445;84;21482;-74
2023/01/04 00:23:50;;;;;;;8.38;5.20;;;;;;;5.36;67.22;100825.24;1675922;85;21068;-75
2023/01/04 00:26:23;;;;;;;7.75;5.10;;;;;;;5.35;67.17;100835.34;1701291;84;21078;-75
2023/01/04 00:29:04;;;;;;;7.42;5.47;;;;;;;5.34;67.15;100833.65;1676203;85;21367;-75
2023/01/04 00:31:32;;;;;;;7.87;5.00;;;;;;;5.35;67.23;100841.05;1702944;83;22499;-73
2023/01/04 00:34:05;;;;;;;6.30;5.08;;;;;;;5.31;67.24;100838.20;1676459;85;20979;-75
2023/01/04 00:36:40;;;;;;;7.58;5.33;;;;;;;5.30;67.30;100845.19;1684374;84;21483;-74
2023/01/04 00:39:09;;;;;;;6.75;5.40;;;;;;;5.27;67.41;100837.95;1682584;84;21028;-74
2023/01/04 00:41:46;;;;;;;7.35;4.87;;;;;;;5.25;67.53;100839.81;1704472;84;21032;-74
2023/01/04 00:44:13;;;;;;;8.58;5.80;;;;;;;5.24;67.58;100832.41;1704812;84;22424;-75
2023/01/04 00:46:40;;;;;;;8.50;5.50;;;;;;;5.21;67.67;100840.87;1704700;84;21007;-75
2023/01/04 00:49:09;;;;;;;7.20;5.55;;;;;;;5.16;67.79;100840.65;1728946;83;21085;-74
2023/01/04 00:51:38;;;;;;;9.00;5.70;;;;;;;5.14;67.87;100839.03;1698369;84;21134;-74
2023/01/04 00:54:06;;;;;;;7.33;5.15;;;;;;;5.12;67.95;100833.03;1727483;83;21429;-75
2023/01/04 00:56:33;;;;;;;7.95;5.42;;;;;;;5.07;68.05;100830.63;1726361;83;22544;-74
2023/01/04 00:59:01;;;;;;;6.87;4.92;;;;;;;5.05;68.13;100822.01;1727369;83;21354;-74
2023/01/04 01:01:29;;;;;;;7.42;5.33;;;;;;;5.04;68.16;100828.63;1725786;83;21008;-74
2023/01/04 01:03:58;;;;;;;6.90;5.03;;;;;;;5.01;68.08;100828.77;1715146;83;21161;-74
2023/01/04 01:06:27;;;;;;;6.78;4.92;;;;;;;4.98;68.01;100832.84;1709624;84;21203;-73
2023/01/04 01:08:55;;;;;;;7.03;5.10;;;;;;;4.95;68.03;100819.45;1709676;84;21842;-73
2023/01/04 01:11:21;;;;;;;7.70;5.15;;;;;;;4.93;67.92;100818.69;1709552;84;21423;-74
2023/01/04 01:13:48;;;;;;;6.30;5.03;;;;;;;4.91;67.89;100816.58;1703080;83;21529;-74
2023/01/04 01:16:17;;;;;;;7.67;5.37;;;;;;;4.89;67.88;100807.97;1681129;85;21104;-74
2023/01/04 01:18:44;;;;;;;7.80;5.25;;;;;;;4.89;67.79;100821.05;1681162;85;21070;-74
2023/01/04 01:21:18;;;;;;;9.75;5.10;;;;;;;4.88;67.74;100821.52;1685336;83;22355;-75
2023/01/04 01:23:46;;;;;;;6.12;4.75;;;;;;;4.86;67.63;100819.44;1709282;84;20963;-74
2023/01/04 01:26:15;;;;;;;7.53;4.87;;;;;;;4.83;67.51;100818.30;1709337;84;20888;-74
2023/01/04 01:28:42;;;;;;;9.78;5.42;;;;;;;4.77;67.31;100809.41;1709774;84;21455;-74
2023/01/04 01:31:15;;;;;;;7.33;4.80;;;;;;;4.73;67.32;100808.31;1698976;83;21554;-75
2023/01/04 01:33:44;;;;;;;6.40;4.90;;;;;;;4.69;67.25;100815.48;1681329;85;21842;-75
2023/01/04 01:36:11;;;;;;;6.92;5.08;;;;;;;4.67;67.21;100814.70;1681038;85;21059;-74
2023/01/04 01:38:37;;;;;;;6.78;5.10;;;;;;;4.65;67.08;100811.78;1690604;83;21083;-73
2023/01/04 01:41:05;;;;;;;7.33;4.78;;;;;;;4.63;67.09;100814.91;1681413;84;21007;-75
2023/01/04 01:43:55;;;;;;;6.42;4.40;;;;;;;4.59;67.08;100812.45;1698351;83;20960;-75
2023/01/04 01:46:44;;;;;;;8.03;5.22;;;;;;;4.56;67.14;100813.91;1747668;82;21849;-75
2023/01/04 01:49:24;;;;;;;5.20;4.17;;;;;;;4.55;67.21;100817.45;1701380;83;21033;-75
2023/01/04 01:51:52;;;;;;;6.17;4.42;;;;;;;4.53;67.32;100813.19;1672773;85;21355;-74
2023/01/04 01:54:25;;;;;;;8.53;5.22;;;;;;;4.51;67.40;100812.42;1700995;84;20977;-74
2023/01/04 01:56:54;;;;;;;6.05;4.42;;;;;;;4.48;67.48;100822.58;1701463;84;21455;-74
2023/01/04 01:59:21;;;;;;;8.03;5.20;;;;;;;4.41;67.70;100825.09;1729008;83;21996;-74
2023/01/04 02:01:47;;;;;;;7.22;5.10;;;;;;;4.41;67.83;100834.70;1689826;85;21463;-75
2023/01/04 02:04:14;;;;;;;6.10;4.83;;;;;;;4.39;67.85;100840.01;1700828;83;21020;-74
2023/01/04 02:06:44;;;;;;;6.30;4.70;;;;;;;4.37;67.85;100839.23;1658443;85;21010;-74
2023/01/04 02:09:13;;;;;;;7.22;4.37;;;;;;;4.34;67.86;100831.52;1684165;85;21013;-73
2023/01/04 02:11:39;;;;;;;7.80;4.62;;;;;;;4.32;67.93;100825.52;1684027;85;21897;-74
2023/01/04 02:16:57;;;;;;;5.83;4.40;;;;;;;4.28;67.91;100830.51;1712542;83;20964;-74
2023/01/04 02:19:49;;;;;;;7.67;4.40;;;;;;;4.26;67.88;100833.66;1685500;83;21481;-74
2023/01/04 02:22:36;;;;;;;5.35;4.37;;;;;;;4.24;67.88;100833.70;1711580;83;21036;-74
2023/01/04 02:25:23;;;;;;;7.28;3.80;;;;;;;4.22;67.80;100838.16;1712841;83;21816;-74
2023/01/04 02:28:13;;;;;;;6.42;4.53;;;;;;;4.19;67.80;100835.70;1712517;83;21067;-75
2023/01/04 02:31:00;;;;;;;5.55;4.00;;;;;;;4.15;67.59;100830.23;1691022;83;21023;-74
2023/01/04 02:33:50;;;;;;;5.65;3.85;;;;;;;4.12;67.51;100834.27;1683921;85;21102;-74
2023/01/04 02:36:43;;;;;;;5.05;4.10;;;;;;;4.09;67.50;100822.66;1684255;85;21110;-74
2023/01/04 02:39:48;;;;;;;5.10;3.80;;;;;;;4.04;67.43;100823.31;1701867;83;21959;-74
2023/01/04 02:45:53;;;;;;;8.45;7.05;;;;;;;3.99;67.36;100820.92;1700935;84;20958;-74
2023/01/04 02:51:04;;;;;;;6.03;3.80;;;;;;;3.93;67.19;100829.02;1699356;84;20955;-73
2023/01/04 02:53:38;;;;;;;5.15;3.77;;;;;;;3.90;67.14;100833.55;1699319;84;22317;-75
2023/01/04 02:56:34;;;;;;;5.58;4.15;;;;;;;3.88;67.16;100833.63;1711531;83;20951;-74
2023/01/04 02:59:06;;;;;;;5.53;4.10;;;;;;;3.86;67.15;100836.77;1727458;83;21459;-74
2023/01/04 03:08:14;;;;;;;8.37;5.80;;;;;;;3.76;66.90;100835.44;1698255;83;21855;-74
2023/01/04 03:10:57;;;;;;;6.15;3.75;;;;;;;3.72;66.83;100826.91;1698332;84;21152;-74
2023/01/04 03:13:39;;;;;;;5.10;3.40;;;;;;;3.71;66.81;100836.13;1712167;83;21066;-74
2023/01/04 03:16:12;;;;;;;5.78;3.72;;;;;;;3.66;66.74;100825.85;1727471;83;21425;-75
2023/01/04 03:18:49;;;;;;;4.22;3.10;;;;;;;3.64;66.67;100822.92;1727538;83;21050;-75
2023/01/04 03:21:16;;;;;;;4.45;3.20;;;;;;;3.63;66.68;100834.30;1710130;83;22559;-74
2023/01/04 03:49:56;;;;;;;6.30;2.75;;;;;;;3.35;66.25;100834.16;1636198;87;22015;-74
2023/01/04 03:52:20;;;;;;;3.58;2.75;;;;;;;3.32;66.23;100833.00;1631951;86;21518;-74
2023/01/04 03:54:48;;;;;;;3.60;2.42;;;;;;;3.31;66.19;100831.76;1632809;86;21048;-75
2023/01/04 03:57:15;;;;;;;6.12;2.80;;;;;;;3.29;66.14;100837.05;1684020;85;20963;-73
2023/01/04 03:59:47;;;;;;;5.72;2.90;;;;;;;3.27;66.12;100835.39;1706367;83;21000;-73
2023/01/04 04:02:18;;;;;;;6.80;2.87;;;;;;;3.23;66.09;100832.53;1706218;84;20991;-73
2023/01/04 04:10:15;;;;;;;5.08;3.27;;;;;;;3.15;66.05;100832.84;1706164;84;20955;-74
2023/01/04 04:12:42;;;;;;;4.58;2.72;;;;;;;3.15;66.06;100832.84;1706235;84;21384;-75
2023/01/04 04:15:09;;;;;;;4.00;2.62;;;;;;;3.13;66.02;100834.22;1735665;82;21842;-74
2023/01/04 04:17:35;;;;;;;3.70;2.55;;;;;;;3.11;65.90;100831.28;1735754;82;20988;-74
2023/01/04 04:20:02;;;;;;;3.12;2.58;;;;;;;3.07;65.83;100831.00;1735624;82;21051;-74
2023/01/04 04:22:29;;;;;;;5.42;2.70;;;;;;;3.04;65.83;100848.95;1706649;82;21079;-73
2023/01/04 04:24:57;;;;;;;4.72;2.45;;;;;;;3.03;65.80;100838.58;1715282;82;21084;-74
2023/01/04 04:27:24;;;;;;;3.55;2.52;;;;;;;3.04;65.76;100841.58;1706202;83;21853;-74
2023/01/04 04:29:50;;;;;;;5.40;2.67;;;;;;;3.01;65.69;100836.03;1701366;84;21063;-74
2023/01/04 04:32:16;;;;;;;3.80;2.65;;;;;;;3.00;65.64;100830.88;1735444;82;21348;-74
2023/01/04 04:34:43;;;;;;;4.80;2.65;;;;;;;3.00;65.56;100833.49;1735867;82;21481;-75
2023/01/04 04:37:10;;;;;;;4.45;2.60;;;;;;;2.98;65.55;100830.91;1730808;82;21478;-74
2023/01/04 04:39:36;;;;;;;3.85;2.70;;;;;;;2.97;65.52;100821.85;1706574;82;21772;-74
2023/01/04 04:42:03;;;;;;;4.12;2.92;;;;;;;2.95;65.56;100839.34;1676313;85;20956;-74
2023/01/04 04:44:29;;;;;;;6.00;3.02;;;;;;;2.93;65.60;100835.48;1711865;82;21008;-75
2023/01/04 04:46:56;;;;;;;5.10;2.33;;;;;;;2.92;65.65;100840.31;1731016;82;21043;-75
2023/01/04 04:49:22;;;;;;;5.28;3.40;;;;;;;2.91;65.72;100837.78;1735776;82;21006;-73
2023/01/04 04:51:50;;;;;;;4.60;2.87;;;;;;;2.91;65.78;100841.69;1703912;84;21004;-74
2023/01/04 04:54:19;;;;;;;3.85;2.40;;;;;;;2.88;65.90;100837.42;1731568;82;21046;-73
2023/01/04 04:56:47;;;;;;;4.45;3.02;;;;;;;2.85;65.97;100841.02;1732643;82;20939;-73
2023/01/04 04:59:13;;;;;;;7.00;3.02;;;;;;;2.84;66.06;100841.92;1732556;82;20971;-74
2023/01/04 05:01:39;;;;;;;5.40;3.72;;;;;;;2.82;66.16;100837.69;1732815;82;21089;-74
2023/01/04 05:04:06;;;;;;;6.03;3.90;;;;;;;2.79;66.25;100834.72;1705192;82;22771;-74
2023/01/04 05:06:33;;;;;;;5.58;3.50;;;;;;;2.78;66.29;100833.02;1703505;84;21406;-74
2023/01/04 05:08:59;;;;;;;4.67;3.33;;;;;;;2.77;66.36;100823.96;1703513;84;20998;-73
2023/01/04 05:14:12;;;;;;;6.83;3.80;;;;;;;2.73;66.53;100838.05;1703551;84;21006;-73
2023/01/04 05:16:38;;;;;;;8.40;5.40;;;;;;;2.72;66.58;100830.69;1703643;83;21796;-74
2023/01/04 05:19:06;;;;;;;6.03;3.70;;;;;;;2.71;66.63;100836.81;1706631;82;21034;-74
2023/01/04 05:21:33;;;;;;;6.58;3.40;;;;;;;2.70;66.72;100832.51;1732857;82;21372;-74
2023/01/04 05:24:00;;;;;;;5.80;3.10;;;;;;;2.69;66.87;100839.06;1732787;82;21006;-74
2023/01/04 05:26:26;;;;;;;6.03;3.95;;;;;;;2.67;66.89;100834.37;1732943;82;21080;-75
2023/01/04 05:28:53;;;;;;;5.58;3.50;;;;;;;2.66;66.94;100834.82;1731803;82;21933;-75
2023/01/04 05:31:19;;;;;;;4.28;3.20;;;;;;;2.66;66.95;100835.28;1732707;82;20999;-74
2023/01/04 05:33:45;;;;;;;6.55;4.37;;;;;;;2.63;67.06;100840.17;1733043;82;20958;-74
2023/01/04 05:36:12;;;;;;;6.25;4.12;;;;;;;2.61;67.10;100844.60;1731644;82;21117;-73
2023/01/04 05:38:39;;;;;;;5.72;3.37;;;;;;;2.61;67.13;100841.15;1732928;82;21014;-74
2023/01/04 05:42:24;;;;;;;5.70;3.75;;;;;;;2.58;67.20;100845.55;1732718;82;22239;-75
2023/01/04 05:43:34;;;;;;;5.47;3.83;;;;;;;2.58;67.26;100851.22;1728226;82;20998;-74
2023/01/04 05:46:01;;;;;;;5.10;3.08;;;;;;;2.57;67.30;100853.44;1704135;82;21058;-75
2023/01/04 05:48:27;;;;;;;6.10;3.95;;;;;;;2.56;67.28;100842.61;1732701;82;21101;-74
2023/01/04 05:50:54;;;;;;;25.62;15.50;;;;;;;2.53;67.39;100853.17;1730628;82;21021;-75
2023/01/04 05:53:21;;;;;;;74.37;51.70;;;;;;;2.50;67.48;100851.51;1725933;83;22232;-75
2023/01/04 05:55:47;;;;;;;17.02;10.43;;;;;;;2.49;67.58;100856.78;1727433;83;21018;-74
2023/01/04 05:58:14;;;;;;;6.15;4.62;;;;;;;2.50;67.65;100854.58;1726977;83;21006;-75
2023/01/04 06:00:40;;;;;;;4.72;3.22;;;;;;;2.50;67.72;100863.70;1727379;83;21010;-75
2023/01/04 06:03:07;;;;;;;4.65;3.47;;;;;;;2.50;67.77;100866.30;1726565;82;21045;-74
2023/01/04 06:05:33;;;;;;;5.17;2.90;;;;;;;2.50;67.77;100865.00;1727197;83;21947;-75
2023/01/04 06:08:01;;;;;;;4.53;3.27;;;;;;;2.51;67.77;100870.61;1726989;83;21411;-74
2023/01/04 06:10:28;;;;;;;5.53;3.05;;;;;;;2.51;67.81;100871.91;1719239;83;21081;-75
2023/01/04 06:12:56;;;;;;;6.22;3.42;;;;;;;2.48;67.95;100876.80;1697977;83;20982;-74
2023/01/04 06:15:22;;;;;;;6.95;3.47;;;;;;;2.48;67.94;100882.47;1698424;84;20963;-73
2023/01/04 06:17:48;;;;;;;5.58;3.90;;;;;;;2.48;68.00;100879.86;1698249;84;21836;-75
2023/01/04 06:20:16;;;;;;;4.62;3.35;;;;;;;2.48;68.07;100888.53;1698483;83;20950;-73
2023/01/04 06:22:42;;;;;;;4.97;3.37;;;;;;;2.49;68.09;100888.92;1669402;84;20999;-74
2023/01/04 06:25:09;;;;;;;4.55;3.17;;;;;;;2.51;68.07;100894.08;1698379;84;20987;-74
2023/01/04 06:27:36;;;;;;;5.87;3.85;;;;;;;2.54;68.12;100896.59;1707373;83;20956;-74
2023/01/04 06:30:04;;;;;;;4.75;3.55;;;;;;;2.55;68.11;100901.74;1727661;83;21837;-74
2023/01/04 06:32:35;;;;;;;5.90;3.50;;;;;;;2.57;68.16;100901.67;1727180;83;21490;-74
2023/01/04 06:35:02;;;;;;;5.85;3.92;;;;;;;2.58;68.13;100895.55;1727143;82;20951;-74
2023/01/04 06:37:28;;;;;;;8.10;4.05;;;;;;;2.60;68.07;100898.95;1710397;81;21132;-74
2023/01/04 06:39:55;;;;;;;10.58;6.60;;;;;;;2.63;68.07;100903.22;1698056;84;21015;-74
2023/01/04 06:45:07;;;;;;;7.10;3.50;;;;;;;2.67;68.02;100903.02;1716749;81;20999;-76
2023/01/04 06:47:33;;;;;;;5.60;3.83;;;;;;;2.69;67.94;100909.48;1729859;82;20991;-75
2023/01/04 06:50:00;;;;;;;18.77;12.10;;;;;;;2.69;67.96;100909.03;1727375;83;20959;-74
2023/01/04 06:52:26;;;;;;;16.57;9.90;;;;;;;2.71;67.92;100907.69;1727290;82;21125;-74
2023/01/04 06:54:52;;;;;;;10.08;5.37;;;;;;;2.72;67.88;100911.99;1726169;83;21989;-75
2023/01/04 06:57:19;;;;;;;10.60;6.25;;;;;;;2.75;67.79;100914.48;1727246;83;21047;-75
2023/01/04 06:59:46;;;;;;;6.35;5.00;;;;;;;2.78;67.76;100916.50;1727279;83;20951;-75
2023/01/04 07:02:13;;;;;;;7.10;4.50;;;;;;;2.81;67.68;100919.47;1726268;82;20998;-74
2023/01/04 07:04:41;;;;;;;6.10;4.12;;;;;;;2.82;67.56;100919.41;1727347;82;21434;-75
2023/01/04 07:07:09;;;;;;;5.25;3.40;;;;;;;2.85;67.53;100921.88;1727094;83;21952;-75
2023/01/04 07:09:35;;;;;;;6.42;3.80;;;;;;;2.90;67.55;100921.72;1727421;82;20983;-75
2023/01/04 07:12:03;;;;;;;5.53;3.65;;;;;;;2.94;67.48;100922.44;1726234;83;21096;-74
2023/01/04 07:14:29;;;;;;;5.47;3.62;;;;;;;2.97;67.39;100921.86;1727159;82;21006;-74
2023/01/04 07:16:56;;;;;;;5.37;3.50;;;;;;;3.00;67.29;100910.47;1727246;83;21415;-74
2023/01/04 07:19:23;;;;;;;6.25;3.65;;;;;;;3.02;67.22;100919.08;1708824;83;21809;-74
2023/01/04 07:21:49;;;;;;;4.70;3.10;;;;;;;3.06;67.16;100917.58;1698409;84;21010;-74
2023/01/04 07:24:16;;;;;;;6.05;3.50;;;;;;;3.09;66.98;100908.34;1698108;84;20991;-74
2023/01/04 07:26:42;;;;;;;7.37;3.77;;;;;;;3.13;66.98;100905.99;1698400;84;21365;-75
2023/01/04 07:29:15;;;;;;;6.08;3.55;;;;;;;3.16;66.71;100905.86;1709515;82;21023;-72
2023/01/04 07:31:44;;;;;;;6.22;3.85;;;;;;;3.21;66.53;100914.83;1694989;82;21755;-74
2023/01/04 07:34:11;;;;;;;5.20;3.60;;;;;;;3.26;66.42;100919.39;1721445;83;21052;-75
2023/01/04 07:36:37;;;;;;;5.45;3.75;;;;;;;3.26;66.24;100920.70;1703300;83;21440;-75
2023/01/04 07:39:04;;;;;;;4.80;3.60;;;;;;;3.28;66.20;100915.41;1724132;83;20968;-75
2023/01/04 07:41:31;;;;;;;5.00;3.27;;;;;;;3.34;66.18;100927.77;1724173;83;21072;-74
2023/01/04 07:44:00;;;;;;;6.67;3.90;;;;;;;3.38;65.97;100928.52;1674416;83;21864;-75
2023/01/04 07:46:27;;;;;;;5.55;3.65;;;;;;;3.42;65.89;100936.14;1694322;83;21013;-75
2023/01/04 07:48:53;;;;;;;7.58;3.90;;;;;;;3.45;65.65;100935.16;1721534;83;20961;-75
2023/01/04 07:51:20;;;;;;;6.22;3.70;;;;;;;3.43;65.30;100936.98;1719048;83;21521;-75
2023/01/04 07:53:46;;;;;;;7.00;4.12;;;;;;;3.42;65.24;100938.75;1697285;84;21347;-75
2023/01/04 07:56:13;;;;;;;6.30;3.98;;;;;;;3.39;65.24;100940.20;1695535;84;22013;-75
2023/01/04 07:58:40;;;;;;;5.55;3.90;;;;;;;3.38;65.21;100935.89;1696002;84;21083;-72
2023/01/04 08:01:14;;;;;;;9.05;4.22;;;;;;;3.41;65.28;100935.75;1695685;84;21071;-74
2023/01/04 08:03:41;;;;;;;;;;;;;;;3.47;65.20;100941.16;1670179;86;21035;-75
2023/01/04 08:06:10;;;;;;;7.05;4.40;;;;;;;3.55;65.18;100938.23;1667821;86;20192;-72
2023/01/04 08:08:36;;;;;;;9.23;4.08;;;;;;;3.61;65.17;100936.69;1667669;85;21829;-74
2023/01/04 08:11:04;;;;;;;6.55;3.60;;;;;;;3.67;65.02;100939.06;1720544;83;20909;-72
2023/01/04 08:13:32;;;;;;;8.88;5.65;;;;;;;3.75;64.96;100933.03;1723167;83;21459;-74
2023/01/04 08:15:59;;;;;;;8.98;6.20;;;;;;;3.86;64.99;100940.41;1723639;83;21016;-73
2023/01/04 08:18:26;;;;;;;6.95;5.10;;;;;;;3.91;64.89;100940.62;1721954;83;21004;-75
2023/01/04 08:21:05;;;;;;;6.78;5.05;;;;;;;3.97;64.58;100939.52;1723101;83;21921;-73
2023/01/04 08:23:32;;;;;;;6.78;4.55;;;;;;;4.00;64.14;100934.16;1722985;83;21044;-74
2023/01/04 08:26:08;;;;;;;7.50;4.67;;;;;;;3.98;63.96;100940.76;1722012;83;21060;-73
2023/01/04 08:28:35;;;;;;;7.10;4.75;;;;;;;3.98;63.94;100942.52;1723012;82;21032;-73
2023/01/04 08:31:08;;;;;;;5.70;3.92;;;;;;;4.01;63.94;100939.77;1723074;83;21047;-72
2023/01/04 08:33:35;;;;;;;7.58;4.50;;;;;;;4.04;63.82;100930.47;1723226;82;21944;-73
2023/01/04 08:36:24;;;;;;;7.25;4.55;;;;;;;4.11;64.04;100928.45;1712937;83;21055;-75
2023/01/04 08:38:52;;;;;;;7.05;4.72;;;;;;;4.23;64.10;100927.91;1670317;84;21008;-73
2023/01/04 08:41:20;;;;;;;6.72;4.30;;;;;;;4.35;64.05;100927.38;1644268;84;21165;-74
2023/01/04 08:43:46;;;;;;;6.10;3.95;;;;;;;4.45;63.92;100919.52;1695129;83;21007;-73
2023/01/04 08:46:13;;;;;;;6.85;3.77;;;;;;;4.53;63.35;100913.91;1694051;84;21948;-76
2023/01/04 08:48:41;;;;;;;6.58;4.03;;;;;;;4.56;63.26;100913.33;1694241;84;21017;-74
2023/01/04 08:51:11;;;;;;;4.90;4.00;;;;;;;4.59;62.90;100915.80;1694294;84;21055;-77
2023/01/04 08:53:38;;;;;;;5.40;3.80;;;;;;;4.61;62.59;100917.02;1690531;83;21042;-74
2023/01/04 08:56:07;;;;;;;5.08;3.60;;;;;;;4.64;62.33;100910.83;1665052;85;20951;-73
2023/01/04 08:58:35;;;;;;;4.58;3.30;;;;;;;4.68;62.33;100912.36;1664510;85;21862;-74
2023/01/04 09:01:07;;;;;;;6.28;3.80;;;;;;;4.73;62.25;100911.67;1703984;82;20975;-74
2023/01/04 09:03:36;;;;;;;4.45;3.22;;;;;;;4.79;61.86;100911.41;1718383;83;23671;-73
2023/01/04 09:06:08;;;;;;;4.75;3.58;;;;;;;4.85;62.15;100918.98;1718107;83;21003;-76
2023/01/04 09:08:37;;;;;;;4.62;3.55;;;;;;;4.88;61.50;100919.67;1718553;83;21480;-74
2023/01/04 09:11:11;;;;;;;5.67;3.58;;;;;;;4.86;61.56;100920.21;1708276;83;22357;-73
2023/01/04 09:13:38;;;;;;;6.83;3.65;;;;;;;4.91;61.82;100899.50;1706134;82;21573;-75
2023/01/04 09:16:07;;;;;;;5.40;3.70;;;;;;;4.98;61.48;100910.92;1706584;84;21001;-74
2023/01/04 09:18:35;;;;;;;6.58;4.25;;;;;;;5.06;61.78;100906.63;1694563;83;21022;-72
2023/01/04 09:21:06;;;;;;;6.78;3.80;;;;;;;5.18;61.71;100899.02;1689532;85;21011;-74
2023/01/04 09:23:34;;;;;;;6.05;3.42;;;;;;;5.32;61.82;100897.52;1689679;83;21783;-73
2023/01/04 09:26:07;;;;;;;4.83;3.45;;;;;;;5.47;60.95;100922.94;1690127;84;21003;-76
2023/01/04 09:28:34;;;;;;;;;;;;;;;5.51;60.91;100907.47;1720033;83;21055;-73
2023/01/04 09:31:13;;;;;;;5.95;3.62;;;;;;;5.60;60.99;100903.55;1718512;83;20403;-74
2023/01/04 09:33:40;;;;;;;8.18;3.80;;;;;;;5.65;60.72;100907.62;1718355;83;21042;-73
2023/01/04 09:36:07;;;;;;;5.00;3.52;;;;;;;5.62;60.49;100906.47;1716687;82;21941;-74
2023/01/04 09:38:34;;;;;;;6.08;3.77;;;;;;;5.63;60.44;100909.47;1718181;82;20956;-73
2023/01/04 09:41:18;;;;;;;6.30;3.92;;;;;;;5.58;60.25;100914.55;1718400;82;21050;-73
2023/01/04 09:44:01;;;;;;;4.80;3.67;;;;;;;5.50;60.37;100917.58;1717095;82;20975;-73
2023/01/04 09:46:54;;;;;;;6.45;3.95;;;;;;;5.48;60.61;100919.39;1718351;82;21539;-74
2023/01/04 09:49:38;;;;;;;8.15;4.28;;;;;;;5.47;60.60;100922.94;1717336;82;21932;-74
2023/01/04 09:52:13;;;;;;;4.28;3.20;;;;;;;5.42;60.62;100919.72;1719335;82;21026;-73
2023/01/04 09:54:47;;;;;;;7.12;3.50;;;;;;;5.39;60.87;100922.47;1727403;83;21501;-74
2023/01/04 09:57:26;;;;;;;5.78;3.30;;;;;;;5.35;60.38;100923.55;1727256;82;20959;-74
2023/01/04 10:00:23;;;;;;;3.35;2.92;;;;;;;5.29;60.47;100922.06;1724843;82;20947;-73
2023/01/04 10:03:15;;;;;;;5.83;3.35;;;;;;;5.26;60.62;100922.23;1698294;84;22279;-73
2023/01/04 10:05:43;;;;;;;5.37;3.10;;;;;;;5.23;60.52;100916.30;1693075;84;21006;-73
2023/01/04 10:08:18;;;;;;;5.08;2.90;;;;;;;5.17;60.58;100916.97;1702447;83;21485;-73
2023/01/04 10:11:08;;;;;;;4.10;3.08;;;;;;;5.14;60.62;100909.27;1727277;83;21442;-73
2023/01/04 10:14:12;;;;;;;4.42;2.92;;;;;;;5.17;60.83;100914.35;1727180;83;21014;-73
2023/01/04 10:17:18;;;;;;;3.95;2.83;;;;;;;5.19;60.91;100905.11;1727671;82;21944;-73
2023/01/04 10:20:08;;;;;;;4.33;2.58;;;;;;;5.24;60.90;100911.45;1647930;84;21402;-74
2023/01/04 10:22:48;;;;;;;4.03;3.12;;;;;;;5.25;60.99;100907.91;1698251;84;20986;-73
2023/01/04 10:25:53;;;;;;;5.17;2.70;;;;;;;5.28;60.81;100915.14;1699569;83;21007;-73
2023/01/04 10:28:26;;;;;;;;;;;;;;;5.32;60.77;100922.41;1684212;83;21542;-75
2023/01/04 10:31:19;;;;;;;3.93;2.67;;;;;;;5.27;60.05;100924.38;1695591;84;21802;-74
2023/01/04 10:33:52;;;;;;;2.95;2.25;;;;;;;5.23;60.09;100924.16;1698392;84;20965;-73
2023/01/04 10:36:30;;;;;;;4.35;2.85;;;;;;;5.18;59.74;100918.66;1703465;83;21002;-73
2023/01/04 10:39:03;;;;;;;4.30;2.60;;;;;;;5.15;59.85;100915.36;1701523;84;20988;-73
2023/01/04 10:41:37;;;;;;;3.80;2.72;;;;;;;5.11;59.76;100912.02;1700334;84;21002;-74
2023/01/04 10:44:18;;;;;;;5.25;2.52;;;;;;;5.11;59.83;100911.17;1699704;83;21836;-73
2023/01/04 10:47:14;;;;;;;3.77;2.60;;;;;;;5.11;59.70;100910.70;1698277;83;20981;-72
2023/01/04 10:49:48;;;;;;;4.55;2.95;;;;;;;5.07;59.98;100909.17;1695289;84;20988;-72
2023/01/04 10:52:19;;;;;;;5.00;2.90;;;;;;;5.08;60.13;100912.17;1714192;83;21443;-72
2023/01/04 10:54:53;;;;;;;3.47;2.80;;;;;;;5.09;60.15;100904.70;1689362;85;21488;-72
2023/01/04 10:57:37;;;;;;;4.25;3.10;;;;;;;5.10;60.04;100906.86;1684050;85;22001;-74
2023/01/04 11:00:13;;;;;;;5.25;2.65;;;;;;;5.06;59.92;100900.09;1699078;83;20980;-73
2023/01/04 11:02:51;;;;;;;3.75;2.42;;;;;;;5.00;60.05;100903.83;1712788;83;21508;-73
2023/01/04 11:05:37;;;;;;;5.83;3.10;;;;;;;4.98;60.09;100903.06;1712548;83;21436;-73
2023/01/04 11:08:22;;;;;;;3.83;2.62;;;;;;;4.93;60.11;100903.77;1711394;83;20977;-74
2023/01/04 11:11:08;;;;;;;4.00;2.80;;;;;;;4.91;60.29;100908.20;1712205;83;21851;-73
2023/01/04 11:13:35;;;;;;;5.30;2.80;;;;;;;4.88;60.29;100903.12;1712512;83;21032;-74
2023/01/04 11:16:03;;;;;;;4.45;2.37;;;;;;;4.89;60.40;100897.80;1711519;83;21012;-73
2023/01/04 11:18:30;;;;;;;6.37;2.70;;;;;;;4.89;60.52;100897.80;1712441;83;21024;-72
2023/01/04 11:20:58;;;;;;;3.33;2.47;;;;;;;4.90;60.55;100894.73;1686427;83;20961;-75
2023/01/04 11:23:25;;;;;;;3.25;2.47;;;;;;;4.92;60.63;100894.19;1712306;83;21956;-73
2023/01/04 11:26:02;;;;;;;3.87;2.60;;;;;;;4.95;60.67;100896.68;1711189;83;21022;-73
2023/01/04 11:28:36;;;;;;;3.98;2.52;;;;;;;4.93;60.53;100891.98;1712230;83;21071;-72
2023/01/04 11:31:11;;;;;;;2.85;2.27;;;;;;;4.93;60.68;100891.98;1712979;83;21396;-73
2023/01/04 11:33:53;;;;;;;5.00;2.95;;;;;;;4.94;60.82;100887.13;1711701;83;21000;-73
2023/01/04 11:36:43;;;;;;;5.05;2.70;;;;;;;4.95;60.83;100871.81;1684303;85;21783;-72
2023/01/04 11:39:24;;;;;;;4.33;2.90;;;;;;;4.96;60.80;100870.04;1682969;85;21024;-73
2023/01/04 11:42:05;;;;;;;6.10;2.85;;;;;;;4.93;60.55;100868.89;1682674;85;21036;-72
2023/01/04 11:44:33;;;;;;;4.30;2.90;;;;;;;4.91;60.63;100870.24;1684684;83;21024;-74
2023/01/04 11:47:20;;;;;;;4.58;2.72;;;;;;;4.93;60.89;100869.73;1684132;85;21080;-73
2023/01/04 11:49:47;;;;;;;6.72;4.03;;;;;;;4.96;60.93;100875.27;1683857;83;22496;-72
2023/01/04 11:52:35;;;;;;;5.92;3.02;;;;;;;4.96;60.83;100876.59;1711962;83;20965;-73
2023/01/04 11:55:25;;;;;;;6.40;3.87;;;;;;;4.93;60.74;100873.66;1712571;83;20997;-73
2023/01/04 11:58:13;;;;;;;5.85;3.52;;;;;;;4.91;60.77;100879.41;1711644;83;21001;-73
2023/01/04 12:00:54;;;;;;;5.85;3.55;;;;;;;4.92;60.83;100877.17;1711562;83;21072;-73
2023/01/04 12:03:37;;;;;;;8.10;4.92;;;;;;;4.95;60.88;100873.58;1712849;83;21530;-73
2023/01/04 12:06:15;;;;;;;5.47;3.50;;;;;;;4.97;60.77;100873.89;1712649;83;21433;-74
2023/01/04 12:08:41;;;;;;;4.28;2.95;;;;;;;4.97;60.70;100878.28;1690068;83;21036;-73
2023/01/04 12:11:16;;;;;;;5.65;3.20;;;;;;;4.95;60.72;100869.66;1683985;85;21068;-74
2023/01/04 12:13:44;;;;;;;7.28;3.40;;;;;;;4.94;60.65;100876.66;1684122;85;21042;-73
2023/01/04 12:16:49;;;;;;;5.58;3.00;;;;;;;4.91;60.73;100874.17;1684226;83;21920;-72
2023/01/04 12:19:16;;;;;;;6.30;3.25;;;;;;;4.89;60.67;100874.71;1712958;83;20976;-73
2023/01/04 12:21:47;;;;;;;5.03;2.98;;;;;;;4.88;60.69;100876.48;1712773;83;20965;-73
2023/01/04 12:24:24;;;;;;;6.08;2.80;;;;;;;4.88;60.84;100880.87;1707661;83;21015;-73
2023/01/04 12:26:51;;;;;;;4.55;2.92;;;;;;;4.88;60.80;100883.48;1684123;85;21046;-73
2023/01/04 12:29:34;;;;;;;5.92;3.15;;;;;;;4.88;60.86;100886.10;1683894;85;21944;-73
2023/01/04 12:32:17;;;;;;;6.33;3.17;;;;;;;4.89;60.88;100880.80;1681007;85;21486;-73
2023/01/04 12:34:46;;;;;;;4.67;3.30;;;;;;;4.85;60.87;100891.03;1706406;83;20985;-73
2023/01/04 12:37:44;;;;;;;3.90;2.70;;;;;;;4.82;61.07;100884.61;1712714;83;21499;-74
2023/01/04 12:40:50;;;;;;;3.98;2.80;;;;;;;4.85;61.05;100887.57;1712951;83;21069;-72
2023/01/04 12:43:25;;;;;;;5.08;3.10;;;;;;;4.83;61.24;100885.03;1712522;83;22326;-73
2023/01/04 12:49:29;;;;;;;5.92;2.98;;;;;;;4.82;61.21;100888.54;1702917;83;21040;-73
2023/01/04 12:52:12;;;;;;;;;;;;;;;4.76;61.39;100894.55;1693624;83;20973;-74
2023/01/04 12:54:53;;;;;;;6.75;3.60;;;;;;;4.74;61.58;100897.70;1681750;85;20152;-73